createdAt,value
2018-01-29T00:00:44.883Z,101679.23
2018-01-29T00:03:12.604Z,101679.45
2018-01-29T00:05:40.107Z,101685.50
2018-01-29T00:08:07.592Z,101677.22
2018-01-29T00:10:35.087Z,101669.41
2018-01-29T00:13:02.631Z,101663.92
2018-01-29T00:15:30.107Z,101664.72
2018-01-29T00:17:58.682Z,101654.39
2018-01-29T00:20:26.441Z,101652.89
2018-01-29T00:22:54.235Z,101645.50
2018-01-29T00:25:21.715Z,101647.59
2018-01-29T00:27:50.846Z,101647.05
2018-01-29T00:30:18.904Z,101641.94
2018-01-29T00:32:46.366Z,101626.91
2018-01-29T00:35:13.900Z,101641.90
2018-01-29T00:37:41.403Z,101643.25
2018-01-29T00:40:08.878Z,101645.81
2018-01-29T00:42:36.334Z,101639.23
2018-01-29T00:45:04.042Z,101638.89
2018-01-29T00:47:32.055Z,101635.34
2018-01-29T00:49:59.640Z,101635.58
2018-01-29T00:52:27.132Z,101630.05
2018-01-29T00:54:55.008Z,101636.52
2018-01-29T00:57:22.547Z,101617.23
2018-01-29T00:59:50.091Z,101619.81
2018-01-29T01:02:18.151Z,101631.50
2018-01-29T01:04:47.652Z,101624.20
2018-01-29T01:07:15.744Z,101623.50
2018-01-29T01:09:43.631Z,101618.54
2018-01-29T01:12:12.030Z,101625.70
2018-01-29T01:14:39.535Z,101625.14
2018-01-29T01:17:07.058Z,101622.52
2018-01-29T01:19:34.580Z,101621.63
2018-01-29T01:22:02.443Z,101613.11
2018-01-29T01:24:29.971Z,101608.34
2018-01-29T01:26:57.458Z,101607.25
2018-01-29T01:29:24.999Z,101605.57
2018-01-29T01:31:52.863Z,101606.09
2018-01-29T01:34:20.417Z,101603.00
2018-01-29T01:36:48.163Z,101605.16
2018-01-29T01:39:15.642Z,101600.43
2018-01-29T01:41:43.128Z,101603.80
2018-01-29T01:44:10.897Z,101617.41
2018-01-29T01:46:38.364Z,101617.41
2018-01-29T01:49:06.715Z,101616.39
2018-01-29T01:51:34.223Z,101617.14
2018-01-29T01:54:01.762Z,101614.23
2018-01-29T01:56:29.923Z,101613.48
2018-01-29T01:58:57.425Z,101610.08
2018-01-29T02:01:24.919Z,101607.59
2018-01-29T02:03:52.390Z,101595.62
2018-01-29T02:06:19.922Z,101584.62
2018-01-29T02:08:47.844Z,101580.59
2018-01-29T02:11:15.370Z,101568.16
2018-01-29T02:13:43.098Z,101567.11
2018-01-29T02:16:10.869Z,101562.55
2018-01-29T02:18:38.331Z,101555.38
2018-01-29T02:21:05.816Z,101554.55
2018-01-29T02:23:33.499Z,101555.20
2018-01-29T02:26:01.211Z,101546.17
2018-01-29T02:28:28.947Z,101546.63
2018-01-29T02:30:56.704Z,101545.94
2018-01-29T02:33:24.395Z,101531.71
2018-01-29T02:35:51.907Z,101532.83
2018-01-29T02:38:20.102Z,101540.56
2018-01-29T02:40:47.587Z,101539.44
2018-01-29T02:43:15.296Z,101537.61
2018-01-29T02:45:42.806Z,101542.61
2018-01-29T02:48:10.531Z,101536.02
2018-01-29T02:50:38.051Z,101543.52
2018-01-29T02:53:05.527Z,101550.66
2018-01-29T02:55:33.043Z,101536.91
2018-01-29T02:58:00.537Z,101545.33
2018-01-29T03:00:28.015Z,101510.59
2018-01-29T03:02:55.502Z,101531.09
2018-01-29T03:05:23.057Z,101508.39
2018-01-29T03:07:51.220Z,101523.70
2018-01-29T03:10:18.786Z,101528.56
2018-01-29T03:12:46.278Z,101528.42
2018-01-29T03:15:13.766Z,101521.09
2018-01-29T03:17:41.294Z,101507.70
2018-01-29T03:20:08.810Z,101504.63
2018-01-29T03:22:37.070Z,101508.14
2018-01-29T03:25:04.562Z,101502.34
2018-01-29T03:27:32.260Z,101490.79
2018-01-29T03:30:00.353Z,101486.34
2018-01-29T03:32:27.846Z,101495.80
2018-01-29T03:34:55.408Z,101495.90
2018-01-29T03:37:23.372Z,101487.90
2018-01-29T03:39:50.831Z,101492.81
2018-01-29T03:42:18.607Z,101486.19
2018-01-29T03:44:47.855Z,101483.00
2018-01-29T03:47:15.571Z,101474.08
2018-01-29T03:49:43.040Z,101474.64
2018-01-29T03:52:10.905Z,101476.13
2018-01-29T03:54:38.662Z,101473.88
2018-01-29T03:57:06.190Z,101472.67
2018-01-29T03:59:33.655Z,101466.31
2018-01-29T04:02:01.884Z,101472.11
2018-01-29T04:04:30.116Z,101459.69
2018-01-29T04:06:58.439Z,101458.74
2018-01-29T04:09:26.391Z,101453.74
2018-01-29T04:11:53.981Z,101454.68
2018-01-29T04:14:21.763Z,101451.61
2018-01-29T04:16:49.284Z,101460.75
2018-01-29T04:19:17.300Z,101449.00
2018-01-29T04:21:44.778Z,101446.28
2018-01-29T04:24:12.266Z,101444.41
2018-01-29T04:26:40.071Z,101444.64
2018-01-29T04:29:07.567Z,101441.55
2018-01-29T04:31:35.335Z,101450.75
2018-01-29T04:34:02.862Z,101448.92
2018-01-29T04:36:30.402Z,101448.73
2018-01-29T04:38:58.241Z,101457.83
2018-01-29T04:41:25.790Z,101453.13
2018-01-29T04:43:54.175Z,101459.98
2018-01-29T04:46:23.460Z,101448.50
2018-01-29T04:48:52.230Z,101449.02
2018-01-29T04:51:21.716Z,101459.82
2018-01-29T04:53:49.439Z,101456.74
2018-01-29T04:56:17.182Z,101450.94
2018-01-29T04:58:44.703Z,101463.80
2018-01-29T05:01:12.223Z,101466.51
2018-01-29T05:03:39.936Z,101467.39
2018-01-29T05:06:07.447Z,101469.88
2018-01-29T05:08:35.305Z,101464.21
2018-01-29T05:11:03.914Z,101462.53
2018-01-29T05:13:32.263Z,101472.76
2018-01-29T05:16:00.006Z,101467.97
2018-01-29T05:18:28.662Z,101469.40
2018-01-29T05:20:56.126Z,101467.59
2018-01-29T05:23:23.895Z,101465.95
2018-01-29T05:25:51.911Z,101472.20
2018-01-29T05:28:20.127Z,101470.63
2018-01-29T05:30:48.099Z,101467.30
2018-01-29T05:33:15.810Z,101468.88
2018-01-29T05:38:46.987Z,101457.66
2018-01-29T05:41:14.434Z,101447.02
2018-01-29T05:43:41.915Z,101441.47
2018-01-29T05:46:09.362Z,101442.81
2018-01-29T05:48:36.851Z,101439.45
2018-01-29T05:51:04.312Z,101434.17
2018-01-29T05:53:31.793Z,101426.18
2018-01-29T05:55:59.247Z,101421.38
2018-01-29T05:58:26.722Z,101418.66
2018-01-29T06:00:54.178Z,101421.27
2018-01-29T06:03:21.663Z,101422.83
2018-01-29T06:05:49.123Z,101430.91
2018-01-29T06:08:16.594Z,101425.20
2018-01-29T06:10:44.059Z,101429.50
2018-01-29T06:13:11.541Z,101434.41
2018-01-29T06:15:38.998Z,101431.61
2018-01-29T06:18:06.475Z,101435.10
2018-01-29T06:20:33.927Z,101438.80
2018-01-29T06:23:01.414Z,101431.00
2018-01-29T06:25:28.878Z,101443.20
2018-01-29T06:27:56.356Z,101441.94
2018-01-29T06:30:23.824Z,101440.25
2018-01-29T06:32:51.300Z,101435.81
2018-01-29T06:35:18.757Z,101440.99
2018-01-29T06:37:46.235Z,101426.61
2018-01-29T06:40:13.690Z,101437.72
2018-01-29T06:42:41.175Z,101436.02
2018-01-29T06:45:08.631Z,101439.00
2018-01-29T06:47:36.106Z,101438.45
2018-01-29T06:50:03.558Z,101441.86
2018-01-29T06:52:31.036Z,101442.00
2018-01-29T06:54:58.565Z,101433.50
2018-01-29T06:57:26.054Z,101436.72
2018-01-29T06:59:53.514Z,101431.56
2018-01-29T07:02:20.970Z,101438.58
2018-01-29T07:04:48.458Z,101441.53
2018-01-29T07:07:15.963Z,101436.87
2018-01-29T07:09:43.416Z,101437.20
2018-01-29T07:12:10.881Z,101435.79
2018-01-29T07:14:38.366Z,101428.41
2018-01-29T07:17:05.827Z,101433.13
2018-01-29T07:19:33.334Z,101428.64
2018-01-29T07:22:00.803Z,101428.23
2018-01-29T07:24:28.278Z,101421.95
2018-01-29T07:26:55.739Z,101425.75
2018-01-29T07:29:23.227Z,101426.87
2018-01-29T07:31:50.691Z,101429.95
2018-01-29T07:34:18.175Z,101425.78
2018-01-29T07:36:45.638Z,101429.25
2018-01-29T07:39:13.136Z,101427.52
2018-01-29T07:41:40.595Z,101431.59
2018-01-29T07:44:08.079Z,101426.77
2018-01-29T07:46:35.544Z,101435.88
2018-01-29T07:49:03.039Z,101416.12
2018-01-29T07:51:30.509Z,101416.70
2018-01-29T07:53:58.000Z,101420.41
2018-01-29T07:56:25.463Z,101419.97
2018-01-29T07:58:52.947Z,101405.81
2018-01-29T08:01:20.422Z,101404.94
2018-01-29T08:03:47.903Z,101404.48
2018-01-29T08:06:15.364Z,101401.52
2018-01-29T08:08:42.847Z,101397.13
2018-01-29T08:11:10.311Z,101405.34
2018-01-29T08:13:37.771Z,101408.56
2018-01-29T08:16:05.261Z,101403.08
2018-01-29T08:18:32.763Z,101395.83
2018-01-29T08:21:00.243Z,101400.33
2018-01-29T08:23:27.715Z,101409.34
2018-01-29T08:25:55.193Z,101408.21
2018-01-29T08:28:22.655Z,101408.36
2018-01-29T08:30:50.160Z,101410.78
2018-01-29T08:33:17.627Z,101409.00
2018-01-29T08:35:45.124Z,101410.11
2018-01-29T08:38:12.605Z,101400.20
2018-01-29T08:40:40.096Z,101399.64
2018-01-29T08:43:07.566Z,101397.39
2018-01-29T08:45:35.057Z,101400.45
2018-01-29T08:48:02.527Z,101404.81
2018-01-29T08:50:30.017Z,101401.62
2018-01-29T08:52:57.479Z,101389.50
2018-01-29T08:55:24.998Z,101394.45
2018-01-29T08:57:52.458Z,101393.02
2018-01-29T09:00:19.935Z,101381.21
2018-01-29T09:02:47.508Z,101387.16
2018-01-29T09:05:14.996Z,101394.45
2018-01-29T09:07:42.463Z,101385.05
2018-01-29T09:10:10.055Z,101381.75
2018-01-29T09:12:37.516Z,101381.47
2018-01-29T09:15:05.008Z,101373.83
2018-01-29T09:17:32.477Z,101378.86
2018-01-29T09:19:59.943Z,101375.45
2018-01-29T09:22:27.424Z,101369.27
2018-01-29T09:24:54.892Z,101365.81
2018-01-29T09:27:22.367Z,101354.00
2018-01-29T09:29:49.835Z,101374.47
2018-01-29T09:32:17.323Z,101348.09
2018-01-29T09:34:44.787Z,101373.11
2018-01-29T09:37:12.273Z,101353.94
2018-01-29T09:39:39.741Z,101366.98
2018-01-29T09:42:07.240Z,101359.38
2018-01-29T09:44:34.704Z,101371.08
2018-01-29T09:47:02.195Z,101367.34
2018-01-29T09:49:29.663Z,101371.16
2018-01-29T09:51:57.149Z,101366.31
2018-01-29T09:54:24.608Z,101362.34
2018-01-29T09:56:52.094Z,101361.92
2018-01-29T09:59:19.571Z,101363.04
2018-01-29T10:01:47.068Z,101359.13
2018-01-29T10:04:14.543Z,101359.98
2018-01-29T10:06:44.683Z,101357.53
2018-01-29T10:09:12.140Z,101354.81
2018-01-29T10:11:39.626Z,101357.25
2018-01-29T10:14:07.078Z,101353.19
2018-01-29T10:16:34.555Z,101363.45
2018-01-29T10:19:02.015Z,101352.17
2018-01-29T10:21:29.503Z,101364.29
2018-01-29T10:23:56.962Z,101368.19
2018-01-29T10:26:24.456Z,101368.96
2018-01-29T10:28:51.927Z,101362.33
2018-01-29T10:31:19.411Z,101348.70
2018-01-29T10:33:47.521Z,101348.36
2018-01-29T10:36:15.009Z,101325.00
2018-01-29T10:38:42.473Z,101333.00
2018-01-29T10:41:09.943Z,101307.80
2018-01-29T10:43:37.452Z,101324.48
2018-01-29T10:46:04.886Z,101306.84
2018-01-29T10:48:32.353Z,101290.86
2018-01-29T10:51:00.954Z,101301.03
2018-01-29T10:53:28.433Z,101267.70
2018-01-29T10:55:55.897Z,101295.39
2018-01-29T10:58:23.375Z,101301.23
2018-01-29T11:00:56.459Z,101292.75
2018-01-29T11:03:23.930Z,101285.02
2018-01-29T11:05:51.390Z,101286.76
2018-01-29T11:08:18.863Z,101292.57
2018-01-29T11:10:46.377Z,101285.12
2018-01-29T11:13:13.917Z,101288.50
2018-01-29T11:15:41.409Z,101298.50
2018-01-29T11:18:08.971Z,101287.44
2018-01-29T11:20:36.523Z,101280.50
2018-01-29T11:23:04.060Z,101267.79
2018-01-29T11:25:31.594Z,101279.31
2018-01-29T11:27:59.085Z,101258.91
2018-01-29T11:30:26.603Z,101262.32
2018-01-29T11:32:54.127Z,101251.38
2018-01-29T11:35:21.583Z,101244.38
2018-01-29T11:37:49.082Z,101243.97
2018-01-29T11:40:16.629Z,101241.08
2018-01-29T11:42:44.103Z,101235.92
2018-01-29T11:45:11.616Z,101226.31
2018-01-29T11:47:39.131Z,101207.40
2018-01-29T11:50:06.630Z,101223.66
2018-01-29T11:52:34.103Z,101215.34
2018-01-29T11:55:01.611Z,101220.28
2018-01-29T11:57:29.083Z,101216.87
2018-01-29T11:59:56.611Z,101214.09
2018-01-29T12:02:24.106Z,101189.53
2018-01-29T12:04:51.626Z,101211.92
2018-01-29T12:07:19.148Z,101199.25
2018-01-29T12:09:46.627Z,101189.87
2018-01-29T12:12:14.134Z,101187.38
2018-01-29T12:14:41.679Z,101166.31
2018-01-29T12:17:09.171Z,101181.66
2018-01-29T12:19:36.712Z,101166.83
2018-01-29T12:22:04.194Z,101177.10
2018-01-29T12:24:31.670Z,101184.97
2018-01-29T12:26:59.154Z,101180.72
2018-01-29T12:29:26.654Z,101172.22
2018-01-29T12:31:54.151Z,101170.31
2018-01-29T12:34:21.647Z,101168.65
2018-01-29T12:36:49.211Z,101176.86
2018-01-29T12:39:16.682Z,101149.39
2018-01-29T12:41:44.227Z,101154.30
2018-01-29T12:44:11.717Z,101145.95
2018-01-29T12:46:39.256Z,101141.29
2018-01-29T12:49:06.804Z,101139.59
2018-01-29T12:51:34.374Z,101134.78
2018-01-29T12:54:01.857Z,101135.75
2018-01-29T12:56:29.318Z,101136.10
2018-01-29T12:58:56.794Z,101108.60
2018-01-29T13:01:24.288Z,101125.55
2018-01-29T13:03:51.863Z,101117.66
2018-01-29T13:06:19.319Z,101113.89
2018-01-29T13:08:46.793Z,101101.75
2018-01-29T13:11:14.287Z,101113.38
2018-01-29T13:13:41.792Z,101114.59
2018-01-29T13:16:09.270Z,101107.91
2018-01-29T13:18:36.851Z,101092.77
2018-01-29T13:21:04.338Z,101093.16
2018-01-29T13:23:31.859Z,101088.43
2018-01-29T13:25:59.327Z,101076.77
2018-01-29T13:28:26.926Z,101092.98
2018-01-29T13:30:54.384Z,101085.67
2018-01-29T13:33:21.854Z,101067.97
2018-01-29T13:35:49.310Z,101075.52
2018-01-29T13:38:16.798Z,101077.87
2018-01-29T13:40:44.279Z,101069.02
2018-01-29T13:43:11.754Z,101062.47
2018-01-29T13:45:39.256Z,101060.52
2018-01-29T13:48:06.710Z,101048.52
2018-01-29T13:50:34.214Z,101061.64
2018-01-29T13:53:01.706Z,101066.69
2018-01-29T13:55:29.211Z,101048.98
2018-01-29T13:57:56.716Z,101049.64
2018-01-29T14:00:24.199Z,101029.84
2018-01-29T14:02:51.672Z,101051.90
2018-01-29T14:05:19.271Z,101055.97
2018-01-29T14:07:46.762Z,101048.56
2018-01-29T14:10:14.279Z,101057.95
2018-01-29T14:12:41.734Z,101049.81
2018-01-29T14:15:09.270Z,101059.66
2018-01-29T14:17:36.780Z,101037.47
2018-01-29T14:20:04.363Z,101033.75
2018-01-29T14:22:32.055Z,101048.91
2018-01-29T14:24:59.655Z,101039.42
2018-01-29T14:27:27.137Z,101022.72
2018-01-29T14:29:56.358Z,101037.61
2018-01-29T14:32:23.814Z,101025.47
2018-01-29T14:34:51.340Z,101022.30
2018-01-29T14:37:18.911Z,101030.20
2018-01-29T14:39:46.963Z,101029.39
2018-01-29T14:42:14.467Z,101023.31
2018-01-29T14:44:41.964Z,101026.51
2018-01-29T14:47:10.731Z,101020.84
2018-01-29T14:49:38.227Z,101023.31
2018-01-29T14:52:06.487Z,101014.69
2018-01-29T14:54:34.073Z,101011.38
2018-01-29T14:57:02.789Z,101010.86
2018-01-29T14:59:30.286Z,101010.37
2018-01-29T15:01:58.621Z,101006.20
2018-01-29T15:04:26.178Z,101022.55
2018-01-29T15:06:54.014Z,100994.86
2018-01-29T15:09:21.515Z,100989.44
2018-01-29T15:11:50.086Z,100998.30
2018-01-29T15:14:18.364Z,100982.19
2018-01-29T15:16:45.893Z,100979.33
2018-01-29T15:19:14.327Z,100979.89
2018-01-29T15:21:42.190Z,100983.73
2018-01-29T15:24:09.742Z,100976.59
2018-01-29T15:26:37.286Z,100970.05
2018-01-29T15:29:05.061Z,100984.03
2018-01-29T15:31:32.943Z,100954.94
2018-01-29T15:34:00.763Z,100979.68
2018-01-29T15:36:29.250Z,100985.25
2018-01-29T15:38:57.114Z,100968.05
2018-01-29T15:41:24.627Z,100959.50
2018-01-29T15:43:52.591Z,100957.91
2018-01-29T15:46:20.410Z,100958.89
2018-01-29T15:48:49.598Z,100948.16
2018-01-29T15:51:17.074Z,100957.35
2018-01-29T15:53:44.607Z,100958.47
2018-01-29T15:56:12.750Z,100958.41
2018-01-29T15:58:40.618Z,100963.95
2018-01-29T16:01:08.470Z,100946.68
2018-01-29T16:03:36.306Z,100952.39
2018-01-29T16:06:04.063Z,100948.46
2018-01-29T16:08:31.815Z,100956.47
2018-01-29T16:10:59.329Z,100945.40
2018-01-29T16:13:27.316Z,100958.54
2018-01-29T16:15:55.535Z,100938.50
2018-01-29T16:18:23.622Z,100960.14
2018-01-29T16:20:51.567Z,100946.09
2018-01-29T16:23:20.195Z,100933.95
2018-01-29T16:25:49.149Z,100949.30
2018-01-29T16:28:17.425Z,100942.95
2018-01-29T16:30:45.335Z,100944.06
2018-01-29T16:33:13.616Z,100930.44
2018-01-29T16:35:41.311Z,100924.19
2018-01-29T16:38:08.862Z,100938.54
2018-01-29T16:40:37.330Z,100919.31
2018-01-29T16:43:04.884Z,100942.02
2018-01-29T16:45:32.479Z,100943.72
2018-01-29T16:47:59.964Z,100929.52
2018-01-29T16:50:27.460Z,100941.02
2018-01-29T16:52:55.396Z,100937.70
2018-01-29T16:55:23.476Z,100947.17
2018-01-29T16:57:51.030Z,100931.39
2018-01-29T17:00:18.918Z,100925.41
2018-01-29T17:02:46.502Z,100938.30
2018-01-29T17:05:14.051Z,100936.53
2018-01-29T17:07:42.162Z,100933.02
2018-01-29T17:10:10.142Z,100937.47
2018-01-29T17:12:37.671Z,100923.86
2018-01-29T17:15:05.658Z,100928.47
2018-01-29T17:17:33.168Z,100937.48
2018-01-29T17:20:02.063Z,100926.39
2018-01-29T17:22:29.596Z,100940.31
2018-01-29T17:24:57.066Z,100933.74
2018-01-29T17:27:25.348Z,100930.09
2018-01-29T17:29:53.235Z,100924.47
2018-01-29T17:32:20.819Z,100927.84
2018-01-29T17:34:48.546Z,100932.50
2018-01-29T17:37:16.363Z,100928.64
2018-01-29T17:39:44.075Z,100932.64
2018-01-29T17:42:11.608Z,100924.30
2018-01-29T17:44:39.145Z,100926.34
2018-01-29T17:47:06.664Z,100928.41
2018-01-29T17:49:34.455Z,100923.22
2018-01-29T17:52:03.216Z,100929.48
2018-01-29T17:54:30.796Z,100942.79
2018-01-29T17:56:58.530Z,100930.00
2018-01-29T17:59:26.021Z,100923.81
2018-01-29T18:01:53.739Z,100930.94
2018-01-29T18:04:21.355Z,100917.91
2018-01-29T18:06:48.814Z,100925.06
2018-01-29T18:09:16.857Z,100913.38
2018-01-29T18:11:44.432Z,100922.45
2018-01-29T18:14:11.943Z,100919.98
2018-01-29T18:16:39.456Z,100929.76
2018-01-29T18:19:07.839Z,100927.77
2018-01-29T18:21:35.623Z,100916.62
2018-01-29T18:24:03.375Z,100927.01
2018-01-29T18:26:30.944Z,100931.53
2018-01-29T18:28:58.431Z,100943.52
2018-01-29T18:31:25.917Z,100933.72
2018-01-29T18:33:53.398Z,100947.10
2018-01-29T18:36:20.879Z,100932.22
2018-01-29T18:38:48.361Z,100928.84
2018-01-29T18:41:15.832Z,100934.38
2018-01-29T18:43:43.318Z,100915.52
2018-01-29T18:46:10.860Z,100952.80
2018-01-29T18:48:39.347Z,100956.48
2018-01-29T18:51:06.808Z,100937.98
2018-01-29T18:53:34.290Z,100961.67
2018-01-29T18:56:01.763Z,100963.27
2018-01-29T18:58:29.243Z,100943.52
2018-01-29T19:00:56.739Z,100927.49
2018-01-29T19:03:24.226Z,100960.66
2018-01-29T19:05:51.692Z,100974.29
2018-01-29T19:08:19.204Z,100982.63
2018-01-29T19:13:20.548Z,101000.53
2018-01-29T19:15:48.012Z,100996.64
2018-01-29T19:18:15.507Z,100980.20
2018-01-29T19:20:43.047Z,100979.25
2018-01-29T19:23:10.802Z,101015.93
2018-01-29T19:25:38.365Z,100996.16
2018-01-29T19:28:05.868Z,100988.78
2018-01-29T19:30:33.534Z,101001.89
2018-01-29T19:33:01.056Z,101012.08
2018-01-29T19:35:28.624Z,101019.41
2018-01-29T19:37:56.177Z,101019.76
2018-01-29T19:40:26.977Z,101019.81
2018-01-29T19:42:54.563Z,101020.88
2018-01-29T19:45:22.156Z,101020.41
2018-01-29T19:47:49.627Z,101026.89
2018-01-29T19:50:17.420Z,101033.06
2018-01-29T19:52:44.911Z,101036.05
2018-01-29T19:55:12.460Z,101070.22
2018-01-29T19:57:39.998Z,101063.11
2018-01-29T20:00:07.534Z,101077.59
2018-01-29T20:02:35.110Z,101081.84
2018-01-29T20:05:02.688Z,124308.59
2018-01-29T20:07:30.293Z,124308.59
2018-01-29T20:09:57.820Z,124308.59
2018-01-29T20:12:25.420Z,124308.59
2018-01-29T20:14:53.003Z,124308.59
2018-01-29T20:17:20.580Z,101151.00
2018-01-29T20:19:48.120Z,101142.29
2018-01-29T20:22:15.632Z,101144.73
2018-01-29T20:24:43.143Z,101158.93
2018-01-29T20:27:10.620Z,101163.17
2018-01-29T20:29:38.132Z,101169.06
2018-01-29T20:32:05.671Z,101190.44
2018-01-29T20:34:33.142Z,101191.60
2018-01-29T20:37:00.665Z,101197.98
2018-01-29T20:39:28.210Z,101190.10
2018-01-29T20:41:55.687Z,101205.73
2018-01-29T20:44:23.172Z,101198.26
2018-01-29T20:46:50.625Z,101213.17
2018-01-29T20:49:18.895Z,101223.67
2018-01-29T20:51:46.375Z,101237.84
2018-01-29T20:54:13.826Z,101230.66
2018-01-29T20:56:41.310Z,101240.64
2018-01-29T20:59:08.767Z,101245.83
2018-01-29T21:01:36.247Z,101238.57
2018-01-29T21:04:03.877Z,101255.95
2018-01-29T21:06:31.387Z,101262.41
2018-01-29T21:08:58.845Z,101277.48
2018-01-29T21:11:26.322Z,101263.56
2018-01-29T21:13:53.779Z,101262.09
2018-01-29T21:16:21.282Z,101290.80
2018-01-29T21:18:48.736Z,101290.55
2018-01-29T21:21:16.230Z,101292.45
2018-01-29T21:23:43.678Z,101304.09
2018-01-29T21:26:11.151Z,101304.84
2018-01-29T21:28:38.606Z,101306.81
2018-01-29T21:31:06.093Z,101312.11
2018-01-29T21:33:33.546Z,101328.47
2018-01-29T21:36:01.052Z,101328.55
2018-01-29T21:38:28.508Z,101325.96
2018-01-29T21:40:55.987Z,101338.77
2018-01-29T21:43:23.446Z,101333.73
2018-01-29T21:45:50.924Z,101333.52
2018-01-29T21:48:18.388Z,101345.17
2018-01-29T21:50:45.883Z,101349.53
2018-01-29T21:53:13.345Z,101346.09
2018-01-29T21:55:40.848Z,101348.17
2018-01-29T21:58:08.318Z,101352.35
2018-01-29T22:00:35.794Z,101367.00
2018-01-29T22:03:03.246Z,101363.16
2018-01-29T22:05:30.732Z,101374.27
2018-01-29T22:07:58.182Z,101369.17
2018-01-29T22:10:25.643Z,101380.59
2018-01-29T22:12:53.118Z,101375.59
2018-01-29T22:15:20.567Z,101364.95
2018-01-29T22:17:48.039Z,101371.80
2018-01-29T22:20:15.494Z,101381.53
2018-01-29T22:22:42.998Z,101377.80
2018-01-29T22:25:10.447Z,101383.80
2018-01-29T22:27:37.918Z,101393.20
2018-01-29T22:30:05.372Z,101395.05
2018-01-29T22:32:32.847Z,101400.23
2018-01-29T22:35:00.303Z,101401.97
2018-01-29T22:37:27.784Z,101407.58
2018-01-29T22:39:55.248Z,101409.23
2018-01-29T22:42:22.723Z,101418.97
2018-01-29T22:44:50.211Z,101418.81
2018-01-29T22:47:17.822Z,101429.09
2018-01-29T22:49:45.277Z,101432.23
2018-01-29T22:52:12.748Z,101437.97
2018-01-29T22:54:40.206Z,101435.56
2018-01-29T22:57:07.671Z,101435.19
2018-01-29T22:59:35.137Z,101439.15
2018-01-29T23:02:02.602Z,101434.72
2018-01-29T23:04:30.140Z,101433.16
2018-01-29T23:06:57.599Z,101433.46
2018-01-29T23:09:25.055Z,101438.90
2018-01-29T23:11:52.527Z,101452.58
2018-01-29T23:14:19.974Z,101446.81
2018-01-29T23:16:47.446Z,101442.60
2018-01-29T23:19:14.899Z,101444.63
2018-01-29T23:21:42.375Z,101447.20
2018-01-29T23:24:09.828Z,101450.39
2018-01-29T23:26:37.303Z,101457.63
2018-01-29T23:29:04.763Z,101456.70
2018-01-29T23:31:32.214Z,101468.38
2018-01-29T23:33:59.690Z,101472.12
2018-01-29T23:36:27.147Z,101483.42
2018-01-29T23:38:54.632Z,101472.05
2018-01-29T23:41:22.090Z,101468.26
2018-01-29T23:43:49.562Z,101476.69
2018-01-29T23:46:17.067Z,101474.62
2018-01-29T23:48:44.554Z,101486.73
2018-01-29T23:51:12.015Z,101487.80
2018-01-29T23:53:39.526Z,101485.32
2018-01-29T23:56:06.987Z,101484.33
2018-01-29T23:58:34.463Z,101488.46
